sensor_id;sensor_type;location;lat;lon;timestamp;temperature;humidity
1461;DHT22;724;49.910;12.530;2023-02-01T00:01:05;0.90;99.90
1461;DHT22;724;49.910;12.530;2023-02-01T00:03:32;0.90;99.90
1461;DHT22;724;49.910;12.530;2023-02-01T00:06:02;0.90;99.90
1461;DHT22;724;49.910;12.530;2023-02-01T00:08:29;0.90;99.90
1461;DHT22;724;49.910;12.530;2023-02-01T00:10:59;0.90;99.90
1461;DHT22;724;49.910;12.530;2023-02-01T00:13:28;0.80;99.90
1461;DHT22;724;49.910;12.530;2023-02-01T00:15:55;0.90;99.90
1461;DHT22;724;49.910;12.530;2023-02-01T00:18:28;0.90;99.90
1461;DHT22;724;49.910;12.530;2023-02-01T00:20:54;0.90;99.90
1461;DHT22;724;49.910;12.530;2023-02-01T00:23:22;0.90;99.90
1461;DHT22;724;49.910;12.530;2023-02-01T00:25:49;0.90;99.90
1461;DHT22;724;49.910;12.530;2023-02-01T00:28:16;0.90;99.90
1461;DHT22;724;49.910;12.530;2023-02-01T00:30:43;0.90;99.90
1461;DHT22;724;49.910;12.530;2023-02-01T00:33:09;0.90;99.90
1461;DHT22;724;49.910;12.530;2023-02-01T00:35:36;1.00;99.90
1461;DHT22;724;49.910;12.530;2023-02-01T00:38:03;0.90;99.90
1461;DHT22;724;49.910;12.530;2023-02-01T00:40:31;0.90;99.90
1461;DHT22;724;49.910;12.530;2023-02-01T00:42:57;0.90;99.90
1461;DHT22;724;49.910;12.530;2023-02-01T00:45:24;0.90;99.90
1461;DHT22;724;49.910;12.530;2023-02-01T00:47:51;0.90;99.90
1461;DHT22;724;49.910;12.530;2023-02-01T00:50:18;0.90;99.90
1461;DHT22;724;49.910;12.530;2023-02-01T00:52:44;0.90;99.90
1461;DHT22;724;49.910;12.530;2023-02-01T00:55:11;0.90;99.90
1461;DHT22;724;49.910;12.530;2023-02-01T00:57:39;0.90;99.90
1461;DHT22;724;49.910;12.530;2023-02-01T01:00:07;0.90;99.90
1461;DHT22;724;49.910;12.530;2023-02-01T01:02:34;0.90;99.90
1461;DHT22;724;49.910;12.530;2023-02-01T01:05:01;0.90;99.90
1461;DHT22;724;49.910;12.530;2023-02-01T01:07:28;0.90;99.90
1461;DHT22;724;49.910;12.530;2023-02-01T01:09:55;0.90;99.90
1461;DHT22;724;49.910;12.530;2023-02-01T01:12:21;0.90;99.90
1461;DHT22;724;49.910;12.530;2023-02-01T01:14:49;0.90;99.90
1461;DHT22;724;49.910;12.530;2023-02-01T01:17:16;0.90;99.90
1461;DHT22;724;49.910;12.530;2023-02-01T01:19:43;0.90;99.90
1461;DHT22;724;49.910;12.530;2023-02-01T01:22:09;0.90;99.90
1461;DHT22;724;49.910;12.530;2023-02-01T01:24:36;0.90;99.90
1461;DHT22;724;49.910;12.530;2023-02-01T01:27:03;0.90;99.90
1461;DHT22;724;49.910;12.530;2023-02-01T01:29:30;0.90;99.90
1461;DHT22;724;49.910;12.530;2023-02-01T01:31:58;0.90;99.90
1461;DHT22;724;49.910;12.530;2023-02-01T01:34:24;0.90;99.90
1461;DHT22;724;49.910;12.530;2023-02-01T01:36:51;0.90;99.90
1461;DHT22;724;49.910;12.530;2023-02-01T01:39:18;0.90;99.90
1461;DHT22;724;49.910;12.530;2023-02-01T01:41:44;0.90;99.90
1461;DHT22;724;49.910;12.530;2023-02-01T01:47:14;0.90;99.90
1461;DHT22;724;49.910;12.530;2023-02-01T01:49:42;0.80;99.90
1461;DHT22;724;49.910;12.530;2023-02-01T01:52:09;0.80;99.90
1461;DHT22;724;49.910;12.530;2023-02-01T01:54:38;0.80;99.90
1461;DHT22;724;49.910;12.530;2023-02-01T01:57:10;0.80;99.90
1461;DHT22;724;49.910;12.530;2023-02-01T01:59:39;0.80;99.90
1461;DHT22;724;49.910;12.530;2023-02-01T02:02:07;0.80;99.90
1461;DHT22;724;49.910;12.530;2023-02-01T02:04:35;0.80;99.90
1461;DHT22;724;49.910;12.530;2023-02-01T02:07:04;0.80;99.90
1461;DHT22;724;49.910;12.530;2023-02-01T02:09:31;0.80;99.90
1461;DHT22;724;49.910;12.530;2023-02-01T02:11:58;0.80;99.90
1461;DHT22;724;49.910;12.530;2023-02-01T02:14:25;0.70;99.90
1461;DHT22;724;49.910;12.530;2023-02-01T02:17:07;0.70;99.90
1461;DHT22;724;49.910;12.530;2023-02-01T02:20:17;0.70;99.90
1461;DHT22;724;49.910;12.530;2023-02-01T02:25:59;0.60;99.90
1461;DHT22;724;49.910;12.530;2023-02-01T02:28:50;0.60;99.90
1461;DHT22;724;49.910;12.530;2023-02-01T02:31:40;0.60;99.90
1461;DHT22;724;49.910;12.530;2023-02-01T02:34:18;0.60;99.90
1461;DHT22;724;49.910;12.530;2023-02-01T02:36:59;0.60;99.90
1461;DHT22;724;49.910;12.530;2023-02-01T02:39:39;0.60;99.90
1461;DHT22;724;49.910;12.530;2023-02-01T02:42:12;0.60;99.90
1461;DHT22;724;49.910;12.530;2023-02-01T02:45:01;0.70;99.90
1461;DHT22;724;49.910;12.530;2023-02-01T02:47:54;0.70;99.90
1461;DHT22;724;49.910;12.530;2023-02-01T02:50:29;0.70;99.90
1461;DHT22;724;49.910;12.530;2023-02-01T02:53:18;0.70;99.90
1461;DHT22;724;49.910;12.530;2023-02-01T02:56:05;0.80;99.90
1461;DHT22;724;49.910;12.530;2023-02-01T02:58:50;0.80;99.90
1461;DHT22;724;49.910;12.530;2023-02-01T03:01:36;0.80;99.90
1461;DHT22;724;49.910;12.530;2023-02-01T03:04:20;0.90;99.90
1461;DHT22;724;49.910;12.530;2023-02-01T03:06:51;0.90;99.90
1461;DHT22;724;49.910;12.530;2023-02-01T03:09:23;0.90;99.90
1461;DHT22;724;49.910;12.530;2023-02-01T03:11:57;0.90;99.90
1461;DHT22;724;49.910;12.530;2023-02-01T03:14:46;0.90;99.90
1461;DHT22;724;49.910;12.530;2023-02-01T03:17:15;0.90;99.90
1461;DHT22;724;49.910;12.530;2023-02-01T03:19:46;0.90;99.90
1461;DHT22;724;49.910;12.530;2023-02-01T03:22:20;0.90;99.90
1461;DHT22;724;49.910;12.530;2023-02-01T03:24:49;0.90;99.90
1461;DHT22;724;49.910;12.530;2023-02-01T03:27:20;0.90;99.90
1461;DHT22;724;49.910;12.530;2023-02-01T03:29:51;0.90;99.90
1461;DHT22;724;49.910;12.530;2023-02-01T03:32:19;0.80;99.90
1461;DHT22;724;49.910;12.530;2023-02-01T03:34:46;0.80;99.90
1461;DHT22;724;49.910;12.530;2023-02-01T03:37:19;0.80;99.90
1461;DHT22;724;49.910;12.530;2023-02-01T03:39:53;0.80;99.90
1461;DHT22;724;49.910;12.530;2023-02-01T03:42:27;0.80;99.90
1461;DHT22;724;49.910;12.530;2023-02-01T03:45:00;0.90;99.90
1461;DHT22;724;49.910;12.530;2023-02-01T03:47:34;0.90;99.90
1461;DHT22;724;49.910;12.530;2023-02-01T03:50:03;0.80;99.90
1461;DHT22;724;49.910;12.530;2023-02-01T03:52:35;0.80;99.90
1461;DHT22;724;49.910;12.530;2023-02-01T03:55:05;0.80;99.90
1461;DHT22;724;49.910;12.530;2023-02-01T03:57:35;0.80;99.90
1461;DHT22;724;49.910;12.530;2023-02-01T04:00:05;0.70;99.90
1461;DHT22;724;49.910;12.530;2023-02-01T04:02:34;0.80;99.90
1461;DHT22;724;49.910;12.530;2023-02-01T04:05:01;0.80;99.90
1461;DHT22;724;49.910;12.530;2023-02-01T04:07:27;0.80;99.90
1461;DHT22;724;49.910;12.530;2023-02-01T04:09:55;0.80;99.90
1461;DHT22;724;49.910;12.530;2023-02-01T04:12:22;0.80;99.90
1461;DHT22;724;49.910;12.530;2023-02-01T04:14:49;0.70;99.90
1461;DHT22;724;49.910;12.530;2023-02-01T04:17:15;0.70;99.90
1461;DHT22;724;49.910;12.530;2023-02-01T04:19:42;0.70;99.90
1461;DHT22;724;49.910;12.530;2023-02-01T04:22:09;0.70;99.90
1461;DHT22;724;49.910;12.530;2023-02-01T04:24:35;0.70;99.90
1461;DHT22;724;49.910;12.530;2023-02-01T04:27:04;0.70;99.90
1461;DHT22;724;49.910;12.530;2023-02-01T04:29:30;0.70;99.90
1461;DHT22;724;49.910;12.530;2023-02-01T04:31:57;0.70;99.90
1461;DHT22;724;49.910;12.530;2023-02-01T04:34:24;0.70;99.90
1461;DHT22;724;49.910;12.530;2023-02-01T04:36:51;0.70;99.90
1461;DHT22;724;49.910;12.530;2023-02-01T04:39:18;0.70;99.90
1461;DHT22;724;49.910;12.530;2023-02-01T04:41:45;0.70;99.90
1461;DHT22;724;49.910;12.530;2023-02-01T04:44:16;0.70;99.90
1461;DHT22;724;49.910;12.530;2023-02-01T04:46:43;0.80;99.90
1461;DHT22;724;49.910;12.530;2023-02-01T04:49:11;0.80;99.90
1461;DHT22;724;49.910;12.530;2023-02-01T04:51:39;0.80;99.90
1461;DHT22;724;49.910;12.530;2023-02-01T04:54:06;0.70;99.90
1461;DHT22;724;49.910;12.530;2023-02-01T04:56:33;0.70;99.90
1461;DHT22;724;49.910;12.530;2023-02-01T04:59:01;0.80;99.90
1461;DHT22;724;49.910;12.530;2023-02-01T05:01:29;0.80;99.90
1461;DHT22;724;49.910;12.530;2023-02-01T05:03:56;0.80;99.90
1461;DHT22;724;49.910;12.530;2023-02-01T05:06:23;0.70;99.90
1461;DHT22;724;49.910;12.530;2023-02-01T05:08:50;0.80;99.90
1461;DHT22;724;49.910;12.530;2023-02-01T05:11:17;0.70;99.90
1461;DHT22;724;49.910;12.530;2023-02-01T05:13:57;0.80;99.90
1461;DHT22;724;49.910;12.530;2023-02-01T05:16:24;0.70;99.90
1461;DHT22;724;49.910;12.530;2023-02-01T05:18:53;0.70;99.90
1461;DHT22;724;49.910;12.530;2023-02-01T05:21:20;0.70;99.90
1461;DHT22;724;49.910;12.530;2023-02-01T05:23:46;0.70;99.90
1461;DHT22;724;49.910;12.530;2023-02-01T05:26:31;0.70;99.90
1461;DHT22;724;49.910;12.530;2023-02-01T05:28:58;0.70;99.90
1461;DHT22;724;49.910;12.530;2023-02-01T05:31:25;0.70;99.90
1461;DHT22;724;49.910;12.530;2023-02-01T05:33:53;0.70;99.90
1461;DHT22;724;49.910;12.530;2023-02-01T05:36:20;0.70;99.90
1461;DHT22;724;49.910;12.530;2023-02-01T05:38:47;0.70;99.90
1461;DHT22;724;49.910;12.530;2023-02-01T05:41:14;0.60;99.90
1461;DHT22;724;49.910;12.530;2023-02-01T05:43:40;0.70;99.90
1461;DHT22;724;49.910;12.530;2023-02-01T05:46:07;0.60;99.90
1461;DHT22;724;49.910;12.530;2023-02-01T05:48:38;0.60;99.90
1461;DHT22;724;49.910;12.530;2023-02-01T05:51:06;0.60;99.90
1461;DHT22;724;49.910;12.530;2023-02-01T05:53:36;0.60;99.90
1461;DHT22;724;49.910;12.530;2023-02-01T05:56:03;0.60;99.90
1461;DHT22;724;49.910;12.530;2023-02-01T05:58:30;0.50;99.90
1461;DHT22;724;49.910;12.530;2023-02-01T06:00:59;0.60;99.90
1461;DHT22;724;49.910;12.530;2023-02-01T06:03:25;0.60;99.90
1461;DHT22;724;49.910;12.530;2023-02-01T06:05:52;0.60;99.90
1461;DHT22;724;49.910;12.530;2023-02-01T06:08:21;0.60;99.90
1461;DHT22;724;49.910;12.530;2023-02-01T06:10:49;0.50;99.90
1461;DHT22;724;49.910;12.530;2023-02-01T06:13:17;0.50;99.90
1461;DHT22;724;49.910;12.530;2023-02-01T06:15:45;0.40;99.90
1461;DHT22;724;49.910;12.530;2023-02-01T06:18:12;0.40;99.90
1461;DHT22;724;49.910;12.530;2023-02-01T06:20:41;0.40;99.90
1461;DHT22;724;49.910;12.530;2023-02-01T06:23:07;0.40;99.90
1461;DHT22;724;49.910;12.530;2023-02-01T06:25:35;0.40;99.90
1461;DHT22;724;49.910;12.530;2023-02-01T06:28:03;0.40;99.90
1461;DHT22;724;49.910;12.530;2023-02-01T06:30:31;0.40;99.90
1461;DHT22;724;49.910;12.530;2023-02-01T06:32:57;0.40;99.90
1461;DHT22;724;49.910;12.530;2023-02-01T06:35:24;0.50;99.90
1461;DHT22;724;49.910;12.530;2023-02-01T06:37:51;0.50;99.90
1461;DHT22;724;49.910;12.530;2023-02-01T06:40:18;0.60;99.90
1461;DHT22;724;49.910;12.530;2023-02-01T06:42:48;0.60;99.90
1461;DHT22;724;49.910;12.530;2023-02-01T06:45:15;0.60;99.90
1461;DHT22;724;49.910;12.530;2023-02-01T06:47:42;0.60;99.90
1461;DHT22;724;49.910;12.530;2023-02-01T06:50:11;0.70;99.90
1461;DHT22;724;49.910;12.530;2023-02-01T06:52:38;0.70;99.90
1461;DHT22;724;49.910;12.530;2023-02-01T06:55:06;0.70;99.90
1461;DHT22;724;49.910;12.530;2023-02-01T06:57:33;0.80;99.90
1461;DHT22;724;49.910;12.530;2023-02-01T07:00:03;0.70;99.90
1461;DHT22;724;49.910;12.530;2023-02-01T07:02:31;0.80;99.90
1461;DHT22;724;49.910;12.530;2023-02-01T07:04:58;0.80;99.90
1461;DHT22;724;49.910;12.530;2023-02-01T07:07:24;0.80;99.90
1461;DHT22;724;49.910;12.530;2023-02-01T07:09:51;0.70;99.90
1461;DHT22;724;49.910;12.530;2023-02-01T07:12:19;0.80;99.90
1461;DHT22;724;49.910;12.530;2023-02-01T07:14:46;0.80;99.90
1461;DHT22;724;49.910;12.530;2023-02-01T07:17:14;0.80;99.90
1461;DHT22;724;49.910;12.530;2023-02-01T07:19:40;0.80;99.90
1461;DHT22;724;49.910;12.530;2023-02-01T07:22:07;0.90;99.90
1461;DHT22;724;49.910;12.530;2023-02-01T07:24:34;0.80;99.90
1461;DHT22;724;49.910;12.530;2023-02-01T07:27:01;0.80;99.90
1461;DHT22;724;49.910;12.530;2023-02-01T07:29:27;0.80;99.90
1461;DHT22;724;49.910;12.530;2023-02-01T07:31:54;0.80;99.90
1461;DHT22;724;49.910;12.530;2023-02-01T07:34:22;0.80;99.90
1461;DHT22;724;49.910;12.530;2023-02-01T07:36:49;0.80;99.90
1461;DHT22;724;49.910;12.530;2023-02-01T07:39:15;0.80;99.90
1461;DHT22;724;49.910;12.530;2023-02-01T07:41:42;0.80;99.90
1461;DHT22;724;49.910;12.530;2023-02-01T07:44:09;0.80;99.90
1461;DHT22;724;49.910;12.530;2023-02-01T07:46:36;0.80;99.90
1461;DHT22;724;49.910;12.530;2023-02-01T07:49:04;0.80;99.90
1461;DHT22;724;49.910;12.530;2023-02-01T07:51:32;0.80;99.90
1461;DHT22;724;49.910;12.530;2023-02-01T07:53:59;0.80;99.90
1461;DHT22;724;49.910;12.530;2023-02-01T07:56:26;0.80;99.90
1461;DHT22;724;49.910;12.530;2023-02-01T07:58:54;0.90;99.90
1461;DHT22;724;49.910;12.530;2023-02-01T08:01:24;0.80;99.90
1461;DHT22;724;49.910;12.530;2023-02-01T08:03:52;0.90;99.90
1461;DHT22;724;49.910;12.530;2023-02-01T08:06:19;1.00;99.90
1461;DHT22;724;49.910;12.530;2023-02-01T08:08:48;1.00;99.90
1461;DHT22;724;49.910;12.530;2023-02-01T08:11:16;1.00;99.90
1461;DHT22;724;49.910;12.530;2023-02-01T08:13:43;1.00;99.90
1461;DHT22;724;49.910;12.530;2023-02-01T08:16:11;1.00;99.90
1461;DHT22;724;49.910;12.530;2023-02-01T08:18:39;0.90;99.90
1461;DHT22;724;49.910;12.530;2023-02-01T08:21:08;0.90;99.90
1461;DHT22;724;49.910;12.530;2023-02-01T08:23:36;0.90;99.90
1461;DHT22;724;49.910;12.530;2023-02-01T08:26:10;0.90;99.90
1461;DHT22;724;49.910;12.530;2023-02-01T08:28:38;1.00;99.90
1461;DHT22;724;49.910;12.530;2023-02-01T08:31:07;1.00;99.90
1461;DHT22;724;49.910;12.530;2023-02-01T08:33:34;0.90;99.90
1461;DHT22;724;49.910;12.530;2023-02-01T08:36:03;1.00;99.90
1461;DHT22;724;49.910;12.530;2023-02-01T08:38:30;1.00;99.90
1461;DHT22;724;49.910;12.530;2023-02-01T08:40:57;1.00;99.90
1461;DHT22;724;49.910;12.530;2023-02-01T08:43:25;1.00;99.90
1461;DHT22;724;49.910;12.530;2023-02-01T08:45:54;1.00;99.90
1461;DHT22;724;49.910;12.530;2023-02-01T08:48:21;1.10;99.90
1461;DHT22;724;49.910;12.530;2023-02-01T08:50:51;1.10;99.90
1461;DHT22;724;49.910;12.530;2023-02-01T08:53:18;1.20;99.90
1461;DHT22;724;49.910;12.530;2023-02-01T08:55:46;1.10;66.40
1461;DHT22;724;49.910;12.530;2023-02-01T08:58:13;1.20;1.00
1461;DHT22;724;49.910;12.530;2023-02-01T09:00:43;1.20;1.00
1461;DHT22;724;49.910;12.530;2023-02-01T09:03:11;1.30;1.00
1461;DHT22;724;49.910;12.530;2023-02-01T09:05:38;1.30;1.00
1461;DHT22;724;49.910;12.530;2023-02-01T09:08:06;1.30;1.00
1461;DHT22;724;49.910;12.530;2023-02-01T09:10:33;1.30;1.00
1461;DHT22;724;49.910;12.530;2023-02-01T09:13:00;1.20;1.00
1461;DHT22;724;49.910;12.530;2023-02-01T09:15:28;1.10;1.00
1461;DHT22;724;49.910;12.530;2023-02-01T09:17:56;1.20;1.00
1461;DHT22;724;49.910;12.530;2023-02-01T09:20:23;1.20;1.00
1461;DHT22;724;49.910;12.530;2023-02-01T09:22:50;1.20;1.00
1461;DHT22;724;49.910;12.530;2023-02-01T09:25:17;1.20;1.00
1461;DHT22;724;49.910;12.530;2023-02-01T09:27:44;1.30;1.00
1461;DHT22;724;49.910;12.530;2023-02-01T09:30:12;1.30;1.00
1461;DHT22;724;49.910;12.530;2023-02-01T09:32:39;1.30;1.00
1461;DHT22;724;49.910;12.530;2023-02-01T09:35:07;1.30;1.00
1461;DHT22;724;49.910;12.530;2023-02-01T09:37:34;1.20;1.00
1461;DHT22;724;49.910;12.530;2023-02-01T09:40:03;1.20;1.00
1461;DHT22;724;49.910;12.530;2023-02-01T09:42:56;1.30;1.00
1461;DHT22;724;49.910;12.530;2023-02-01T09:45:34;1.30;1.00
1461;DHT22;724;49.910;12.530;2023-02-01T09:48:09;1.30;1.00
1461;DHT22;724;49.910;12.530;2023-02-01T09:50:43;1.40;99.90
1461;DHT22;724;49.910;12.530;2023-02-01T09:53:15;1.30;99.90
1461;DHT22;724;49.910;12.530;2023-02-01T09:55:46;1.30;99.90
1461;DHT22;724;49.910;12.530;2023-02-01T09:58:18;1.30;99.90
1461;DHT22;724;49.910;12.530;2023-02-01T10:00:51;1.30;99.90
1461;DHT22;724;49.910;12.530;2023-02-01T10:03:18;1.20;1.00
1461;DHT22;724;49.910;12.530;2023-02-01T10:06:09;1.20;1.00
1461;DHT22;724;49.910;12.530;2023-02-01T10:08:59;1.40;1.00
1461;DHT22;724;49.910;12.530;2023-02-01T10:11:35;1.40;1.00
1461;DHT22;724;49.910;12.530;2023-02-01T10:14:23;1.50;1.00
1461;DHT22;724;49.910;12.530;2023-02-01T10:16:57;1.40;99.90
1461;DHT22;724;49.910;12.530;2023-02-01T10:19:35;1.40;99.90
1461;DHT22;724;49.910;12.530;2023-02-01T10:22:09;1.40;99.90
1461;DHT22;724;49.910;12.530;2023-02-01T10:24:40;1.40;99.90
1461;DHT22;724;49.910;12.530;2023-02-01T10:27:13;1.40;99.90
1461;DHT22;724;49.910;12.530;2023-02-01T10:29:43;1.80;1.00
1461;DHT22;724;49.910;12.530;2023-02-01T10:32:13;1.50;99.90
1461;DHT22;724;49.910;12.530;2023-02-01T10:34:41;1.50;99.90
1461;DHT22;724;49.910;12.530;2023-02-01T10:37:18;1.40;99.90
1461;DHT22;724;49.910;12.530;2023-02-01T10:39:47;1.40;99.90
1461;DHT22;724;49.910;12.530;2023-02-01T10:42:15;1.50;99.90
1461;DHT22;724;49.910;12.530;2023-02-01T10:44:43;1.50;99.90
1461;DHT22;724;49.910;12.530;2023-02-01T10:47:13;1.60;99.90
1461;DHT22;724;49.910;12.530;2023-02-01T10:49:45;1.70;99.90
1461;DHT22;724;49.910;12.530;2023-02-01T10:52:18;1.70;1.00
1461;DHT22;724;49.910;12.530;2023-02-01T10:54:46;1.60;1.00
1461;DHT22;724;49.910;12.530;2023-02-01T10:57:20;1.60;1.00
1461;DHT22;724;49.910;12.530;2023-02-01T10:59:47;1.60;1.00
1461;DHT22;724;49.910;12.530;2023-02-01T11:02:20;1.60;1.00
1461;DHT22;724;49.910;12.530;2023-02-01T11:04:58;1.60;1.00
1461;DHT22;724;49.910;12.530;2023-02-01T11:07:28;1.60;1.00
1461;DHT22;724;49.910;12.530;2023-02-01T11:09:56;1.50;1.00
1461;DHT22;724;49.910;12.530;2023-02-01T11:12:29;1.50;1.00
1461;DHT22;724;49.910;12.530;2023-02-01T11:15:03;1.60;1.00
1461;DHT22;724;49.910;12.530;2023-02-01T11:17:40;1.60;1.00
1461;DHT22;724;49.910;12.530;2023-02-01T11:20:14;1.60;1.00
1461;DHT22;724;49.910;12.530;2023-02-01T11:22:47;1.70;1.00
1461;DHT22;724;49.910;12.530;2023-02-01T11:25:16;1.80;1.00
1461;DHT22;724;49.910;12.530;2023-02-01T11:27:44;1.80;1.00
1461;DHT22;724;49.910;12.530;2023-02-01T11:30:16;1.80;1.00
1461;DHT22;724;49.910;12.530;2023-02-01T11:32:45;1.60;1.00
1461;DHT22;724;49.910;12.530;2023-02-01T11:35:17;1.70;1.00
1461;DHT22;724;49.910;12.530;2023-02-01T11:37:50;1.70;1.00
1461;DHT22;724;49.910;12.530;2023-02-01T11:40:26;1.70;1.00
1461;DHT22;724;49.910;12.530;2023-02-01T11:42:54;1.80;1.00
1461;DHT22;724;49.910;12.530;2023-02-01T11:45:26;1.90;1.00
1461;DHT22;724;49.910;12.530;2023-02-01T11:47:54;1.80;1.00
1461;DHT22;724;49.910;12.530;2023-02-01T11:50:28;1.80;1.00
1461;DHT22;724;49.910;12.530;2023-02-01T11:53:25;1.80;1.00
1461;DHT22;724;49.910;12.530;2023-02-01T11:56:03;1.80;1.00
1461;DHT22;724;49.910;12.530;2023-02-01T11:58:50;1.90;1.00
1461;DHT22;724;49.910;12.530;2023-02-01T12:01:34;2.00;1.00
1461;DHT22;724;49.910;12.530;2023-02-01T12:07:04;2.00;99.90
1461;DHT22;724;49.910;12.530;2023-02-01T12:09:45;2.10;99.90
1461;DHT22;724;49.910;12.530;2023-02-01T12:12:20;2.10;99.90
1461;DHT22;724;49.910;12.530;2023-02-01T12:15:00;2.00;99.90
1461;DHT22;724;49.910;12.530;2023-02-01T12:17:45;1.90;99.90
1461;DHT22;724;49.910;12.530;2023-02-01T12:20:24;1.80;99.90
1461;DHT22;724;49.910;12.530;2023-02-01T12:23:03;1.70;1.00
1461;DHT22;724;49.910;12.530;2023-02-01T12:25:44;1.70;1.00
1461;DHT22;724;49.910;12.530;2023-02-01T12:28:27;1.60;1.00
1461;DHT22;724;49.910;12.530;2023-02-01T12:31:15;1.60;1.00
1461;DHT22;724;49.910;12.530;2023-02-01T12:34:03;1.80;1.00
1461;DHT22;724;49.910;12.530;2023-02-01T12:36:38;1.70;1.00
1461;DHT22;724;49.910;12.530;2023-02-01T12:39:15;1.60;1.00
1461;DHT22;724;49.910;12.530;2023-02-01T12:41:53;1.40;7.30
1461;DHT22;724;49.910;12.530;2023-02-01T12:44:29;1.50;99.90
1461;DHT22;724;49.910;12.530;2023-02-01T12:47:01;1.70;99.90
1461;DHT22;724;49.910;12.530;2023-02-01T12:49:40;1.60;77.30
1461;DHT22;724;49.910;12.530;2023-02-01T12:52:12;1.60;1.00
1461;DHT22;724;49.910;12.530;2023-02-01T12:54:42;1.60;1.00
1461;DHT22;724;49.910;12.530;2023-02-01T12:57:16;1.70;1.00
1461;DHT22;724;49.910;12.530;2023-02-01T12:59:47;1.70;1.00
1461;DHT22;724;49.910;12.530;2023-02-01T13:02:20;1.70;1.00
1461;DHT22;724;49.910;12.530;2023-02-01T13:04:57;1.70;1.00
1461;DHT22;724;49.910;12.530;2023-02-01T13:07:30;1.80;99.90
1461;DHT22;724;49.910;12.530;2023-02-01T13:10:02;1.70;99.90
1461;DHT22;724;49.910;12.530;2023-02-01T13:12:34;1.80;99.90
1461;DHT22;724;49.910;12.530;2023-02-01T13:15:05;1.70;99.90
1461;DHT22;724;49.910;12.530;2023-02-01T13:17:38;1.80;99.90
1461;DHT22;724;49.910;12.530;2023-02-01T13:20:16;1.80;99.90
1461;DHT22;724;49.910;12.530;2023-02-01T13:22:46;1.70;99.90
1461;DHT22;724;49.910;12.530;2023-02-01T13:25:20;1.80;99.90
1461;DHT22;724;49.910;12.530;2023-02-01T13:27:53;1.70;99.90
1461;DHT22;724;49.910;12.530;2023-02-01T13:30:25;1.60;99.90
1461;DHT22;724;49.910;12.530;2023-02-01T13:33:09;1.60;99.90
1461;DHT22;724;49.910;12.530;2023-02-01T13:36:05;1.60;99.90
1461;DHT22;724;49.910;12.530;2023-02-01T13:38:53;1.60;99.90
1461;DHT22;724;49.910;12.530;2023-02-01T13:41:28;1.60;99.90
1461;DHT22;724;49.910;12.530;2023-02-01T13:44:00;1.60;99.90
1461;DHT22;724;49.910;12.530;2023-02-01T13:46:28;1.70;99.90
1461;DHT22;724;49.910;12.530;2023-02-01T13:48:57;1.70;99.90
1461;DHT22;724;49.910;12.530;2023-02-01T13:51:35;1.70;99.90
1461;DHT22;724;49.910;12.530;2023-02-01T13:54:03;1.70;99.90
1461;DHT22;724;49.910;12.530;2023-02-01T13:56:40;1.70;99.90
1461;DHT22;724;49.910;12.530;2023-02-01T14:02:51;1.60;99.90
1461;DHT22;724;49.910;12.530;2023-02-01T14:11:37;1.50;99.90
1461;DHT22;724;49.910;12.530;2023-02-01T14:17:35;1.40;1.00
1461;DHT22;724;49.910;12.530;2023-02-01T14:23:37;1.50;1.00
1461;DHT22;724;49.910;12.530;2023-02-01T14:26:16;1.50;1.00
1461;DHT22;724;49.910;12.530;2023-02-01T14:28:48;1.50;99.90
1461;DHT22;724;49.910;12.530;2023-02-01T14:31:42;1.60;99.90
1461;DHT22;724;49.910;12.530;2023-02-01T14:34:14;1.50;99.90
1461;DHT22;724;49.910;12.530;2023-02-01T14:36:45;1.50;99.90
1461;DHT22;724;49.910;12.530;2023-02-01T14:39:33;1.50;99.90
1461;DHT22;724;49.910;12.530;2023-02-01T14:42:03;1.50;99.90
1461;DHT22;724;49.910;12.530;2023-02-01T14:44:34;1.60;99.90
1461;DHT22;724;49.910;12.530;2023-02-01T14:53:17;1.50;7.20
1461;DHT22;724;49.910;12.530;2023-02-01T14:55:49;1.50;1.00
1461;DHT22;724;49.910;12.530;2023-02-01T14:58:32;1.40;1.00
1461;DHT22;724;49.910;12.530;2023-02-01T15:01:02;1.50;1.00
1461;DHT22;724;49.910;12.530;2023-02-01T15:03:39;1.40;1.00
1461;DHT22;724;49.910;12.530;2023-02-01T15:06:21;1.40;1.00
1461;DHT22;724;49.910;12.530;2023-02-01T15:08:49;1.50;1.00
1461;DHT22;724;49.910;12.530;2023-02-01T15:11:19;1.40;1.00
1461;DHT22;724;49.910;12.530;2023-02-01T15:13:49;1.40;1.00
1461;DHT22;724;49.910;12.530;2023-02-01T15:16:18;1.40;1.00
1461;DHT22;724;49.910;12.530;2023-02-01T15:18:46;1.40;1.00
1461;DHT22;724;49.910;12.530;2023-02-01T15:21:17;1.40;1.00
1461;DHT22;724;49.910;12.530;2023-02-01T15:23:45;1.40;1.00
1461;DHT22;724;49.910;12.530;2023-02-01T15:26:26;1.40;1.00
1461;DHT22;724;49.910;12.530;2023-02-01T15:28:53;1.40;1.00
1461;DHT22;724;49.910;12.530;2023-02-01T15:31:32;1.40;1.00
1461;DHT22;724;49.910;12.530;2023-02-01T15:33:59;1.40;1.00
1461;DHT22;724;49.910;12.530;2023-02-01T15:36:26;1.40;1.00
1461;DHT22;724;49.910;12.530;2023-02-01T15:39:14;1.40;1.00
1461;DHT22;724;49.910;12.530;2023-02-01T15:41:46;1.30;1.00
1461;DHT22;724;49.910;12.530;2023-02-01T15:44:19;1.30;1.00
1461;DHT22;724;49.910;12.530;2023-02-01T15:46:48;1.30;1.00
1461;DHT22;724;49.910;12.530;2023-02-01T15:49:20;1.30;1.00
1461;DHT22;724;49.910;12.530;2023-02-01T15:51:47;1.30;1.00
1461;DHT22;724;49.910;12.530;2023-02-01T15:54:17;1.30;1.00
1461;DHT22;724;49.910;12.530;2023-02-01T15:56:49;1.30;1.00
1461;DHT22;724;49.910;12.530;2023-02-01T15:59:21;1.30;1.00
1461;DHT22;724;49.910;12.530;2023-02-01T16:01:48;1.40;1.00
1461;DHT22;724;49.910;12.530;2023-02-01T16:04:18;1.40;1.00
1461;DHT22;724;49.910;12.530;2023-02-01T16:06:47;1.30;1.00
1461;DHT22;724;49.910;12.530;2023-02-01T16:09:15;1.40;1.00
1461;DHT22;724;49.910;12.530;2023-02-01T16:11:54;1.30;1.00
1461;DHT22;724;49.910;12.530;2023-02-01T16:14:25;1.40;1.00
1461;DHT22;724;49.910;12.530;2023-02-01T16:16:53;1.30;1.00
1461;DHT22;724;49.910;12.530;2023-02-01T16:19:20;1.30;1.00
1461;DHT22;724;49.910;12.530;2023-02-01T16:21:53;1.40;1.00
1461;DHT22;724;49.910;12.530;2023-02-01T16:24:23;1.40;1.00
1461;DHT22;724;49.910;12.530;2023-02-01T16:26:52;1.40;1.00
1461;DHT22;724;49.910;12.530;2023-02-01T16:29:19;1.40;1.00
1461;DHT22;724;49.910;12.530;2023-02-01T16:31:48;1.30;1.00
1461;DHT22;724;49.910;12.530;2023-02-01T16:34:16;1.20;1.00
1461;DHT22;724;49.910;12.530;2023-02-01T16:36:43;1.20;1.00
1461;DHT22;724;49.910;12.530;2023-02-01T16:39:11;1.20;73.80
1461;DHT22;724;49.910;12.530;2023-02-01T16:41:39;1.20;84.70
1461;DHT22;724;49.910;12.530;2023-02-01T16:44:07;1.30;99.90
1461;DHT22;724;49.910;12.530;2023-02-01T16:46:38;1.30;99.90
1461;DHT22;724;49.910;12.530;2023-02-01T16:49:05;1.20;99.90
1461;DHT22;724;49.910;12.530;2023-02-01T16:51:42;1.20;99.90
1461;DHT22;724;49.910;12.530;2023-02-01T16:54:09;1.20;1.00
1461;DHT22;724;49.910;12.530;2023-02-01T16:56:37;1.20;1.00
1461;DHT22;724;49.910;12.530;2023-02-01T16:59:08;1.20;1.00
1461;DHT22;724;49.910;12.530;2023-02-01T17:01:35;1.20;1.00
1461;DHT22;724;49.910;12.530;2023-02-01T17:04:03;1.20;1.00
1461;DHT22;724;49.910;12.530;2023-02-01T17:06:30;1.20;1.00
1461;DHT22;724;49.910;12.530;2023-02-01T17:08:58;1.10;1.00
1461;DHT22;724;49.910;12.530;2023-02-01T17:11:27;1.20;1.00
1461;DHT22;724;49.910;12.530;2023-02-01T17:13:56;1.20;1.00
1461;DHT22;724;49.910;12.530;2023-02-01T17:16:27;1.20;1.00
1461;DHT22;724;49.910;12.530;2023-02-01T17:18:58;1.20;1.00